Weather at Cap Skirring Airport

Public forecast

Using degrees Celsius for public forecast. Weather courtesy of forecast.io.

Current aviation weather report (METAR) for Cap Skirring Airport

Report is more than 6 hours old.

2022/11/14 15:00 (retrieved 2 years ago)

GOGS 141500Z 34004KT CAVOK 31/23 Q1011

Aviation forecast (TAF) for Cap Skirring Airport

Forecast is more than 12 hours old.

2023/02/22 18:51 (retrieved 1 year ago)

TAF GOGS 221700Z 2218/2318 30008KT 8000 NSC